createdAt,value
2022-10-05T00:02:24.385Z,1.15
2022-10-05T00:04:57.117Z,1.00
2022-10-05T00:07:25.312Z,1.38
2022-10-05T00:09:58.038Z,1.27
2022-10-05T00:12:26.842Z,1.52
2022-10-05T00:14:59.819Z,1.25
2022-10-05T00:17:30.024Z,1.13
2022-10-05T00:19:57.229Z,1.13
2022-10-05T00:22:34.281Z,1.10
2022-10-05T00:25:10.672Z,1.02
2022-10-05T00:27:38.959Z,1.38
2022-10-05T00:30:18.215Z,1.35
2022-10-05T00:32:46.771Z,1.73
2022-10-05T00:35:15.676Z,1.42
2022-10-05T00:37:43.812Z,1.83
2022-10-05T00:40:24.562Z,1.45
2022-10-05T00:43:30.872Z,1.60
2022-10-05T00:46:08.811Z,1.48
2022-10-05T00:48:56.413Z,1.92
2022-10-05T00:51:25.526Z,1.40
2022-10-05T00:54:13.590Z,1.48
2022-10-05T00:57:15.675Z,1.60
2022-10-05T00:59:58.189Z,1.67
2022-10-05T01:02:45.482Z,1.05
2022-10-05T01:05:31.372Z,1.48
2022-10-05T01:08:17.679Z,0.85
2022-10-05T01:11:04.025Z,1.20
2022-10-05T01:14:04.455Z,1.80
2022-10-05T01:16:43.978Z,1.10
2022-10-05T01:19:40.298Z,1.70
2022-10-05T01:22:07.774Z,1.23
2022-10-05T01:24:37.294Z,0.95
2022-10-05T01:27:40.543Z,1.20
2022-10-05T01:30:20.493Z,1.17
2022-10-05T01:32:50.936Z,1.20
2022-10-05T01:35:43.703Z,1.40
2022-10-05T01:38:28.937Z,1.30
2022-10-05T01:41:12.023Z,1.55
2022-10-05T01:43:44.236Z,1.15
2022-10-05T01:46:27.883Z,0.98
2022-10-05T01:49:03.710Z,1.67
2022-10-05T01:51:57.589Z,1.85
2022-10-05T01:54:27.910Z,1.10
2022-10-05T01:57:17.482Z,1.45
2022-10-05T02:00:11.127Z,1.38
2022-10-05T02:03:16.186Z,1.20
2022-10-05T02:05:56.665Z,1.30
2022-10-05T02:08:54.939Z,1.63
2022-10-05T02:11:22.256Z,0.90
2022-10-05T02:14:12.384Z,1.52
2022-10-05T02:16:44.717Z,1.65
2022-10-05T02:19:21.061Z,1.48
2022-10-05T02:21:54.877Z,1.30
2022-10-05T02:24:28.603Z,1.45
2022-10-05T02:26:56.703Z,1.55
2022-10-05T02:29:29.601Z,1.23
2022-10-05T02:32:04.694Z,1.80
2022-10-05T02:34:43.093Z,1.67
2022-10-05T02:37:34.476Z,1.25
2022-10-05T02:40:20.176Z,1.40
2022-10-05T02:42:55.353Z,1.50
2022-10-05T02:45:37.821Z,1.52
2022-10-05T02:48:16.434Z,1.38
2022-10-05T02:51:23.021Z,1.67
2022-10-05T02:53:50.199Z,1.20
2022-10-05T02:56:36.787Z,2.00
2022-10-05T02:59:57.882Z,1.90
2022-10-05T03:02:56.396Z,1.92
2022-10-05T03:05:46.955Z,1.77
2022-10-05T03:08:22.505Z,1.70
2022-10-05T03:10:56.652Z,1.60
2022-10-05T03:13:27.606Z,1.90
2022-10-05T03:16:10.843Z,1.48
2022-10-05T03:21:25.315Z,1.95
2022-10-05T03:24:35.757Z,1.67
2022-10-05T03:27:04.358Z,1.80
2022-10-05T03:30:08.459Z,1.77
2022-10-05T03:32:52.468Z,2.33
2022-10-05T03:35:34.780Z,1.42
2022-10-05T03:38:34.899Z,1.65
2022-10-05T03:41:31.862Z,1.50
2022-10-05T03:44:11.201Z,1.73
2022-10-05T03:47:14.290Z,2.20
2022-10-05T03:50:05.083Z,1.67
2022-10-05T03:53:25.079Z,1.25
2022-10-05T03:55:59.708Z,1.63
2022-10-05T03:58:46.217Z,2.25
2022-10-05T04:01:18.821Z,1.63
2022-10-05T04:03:54.204Z,2.25
2022-10-05T04:06:32.928Z,1.90
2022-10-05T04:09:10.220Z,1.70
2022-10-05T04:11:54.571Z,1.60
2022-10-05T04:14:37.265Z,1.48
2022-10-05T04:17:32.551Z,1.38
2022-10-05T04:20:06.854Z,1.95
2022-10-05T04:23:00.319Z,1.48
2022-10-05T04:25:51.877Z,2.15
2022-10-05T04:30:55.066Z,2.08
2022-10-05T04:33:22.737Z,1.60
2022-10-05T04:36:08.356Z,1.80
2022-10-05T04:38:57.348Z,2.25
2022-10-05T04:41:30.462Z,1.20
2022-10-05T04:44:34.353Z,1.50
2022-10-05T04:47:26.842Z,1.10
2022-10-05T04:50:29.664Z,1.42
2022-10-05T04:53:14.725Z,1.30
2022-10-05T04:56:11.112Z,1.50
2022-10-05T04:59:05.317Z,1.75
2022-10-05T05:01:50.596Z,1.70
2022-10-05T05:04:55.304Z,1.67
2022-10-05T05:07:48.313Z,1.15
2022-10-05T05:10:54.554Z,1.90
2022-10-05T05:13:50.264Z,1.40
2022-10-05T05:16:44.366Z,1.40
2022-10-05T05:19:41.966Z,1.50
2022-10-05T05:22:25.803Z,1.42
2022-10-05T05:25:15.956Z,0.98
2022-10-05T05:28:22.343Z,1.50
2022-10-05T05:31:00.546Z,1.45
2022-10-05T05:33:49.250Z,0.90
2022-10-05T05:36:43.536Z,1.10
2022-10-05T05:39:45.157Z,1.60
2022-10-05T05:42:30.810Z,2.42
2022-10-05T05:45:04.725Z,1.50
2022-10-05T05:47:38.298Z,1.15
2022-10-05T05:50:10.516Z,1.98
2022-10-05T05:52:51.549Z,1.83
2022-10-05T05:55:21.413Z,2.25
2022-10-05T05:57:59.157Z,1.73
2022-10-05T06:00:37.723Z,1.70
2022-10-05T06:03:21.068Z,1.80
2022-10-05T06:05:58.413Z,1.55
2022-10-05T06:08:42.535Z,1.70
2022-10-05T06:11:27.573Z,1.70
2022-10-05T06:16:31.479Z,2.10
2022-10-05T06:19:11.280Z,1.83
2022-10-05T06:21:46.773Z,1.77
2022-10-05T06:24:23.390Z,1.80
2022-10-05T06:26:57.153Z,1.77
2022-10-05T06:29:31.503Z,1.75
2022-10-05T06:32:18.646Z,2.22
2022-10-05T06:35:05.646Z,1.80
2022-10-05T06:37:56.913Z,1.15
2022-10-05T06:40:53.349Z,1.25
2022-10-05T06:43:39.388Z,1.80
2022-10-05T06:46:38.706Z,1.45
2022-10-05T06:49:51.992Z,1.55
2022-10-05T06:53:11.590Z,1.27
2022-10-05T06:55:52.490Z,1.17
2022-10-05T06:58:44.776Z,1.02
2022-10-05T07:01:31.174Z,1.40
2022-10-05T07:04:04.333Z,1.08
2022-10-05T07:07:00.081Z,0.95
2022-10-05T07:09:37.324Z,1.00
2022-10-05T07:12:32.871Z,1.13
2022-10-05T07:15:18.282Z,0.90
2022-10-05T07:18:14.374Z,1.52
2022-10-05T07:21:11.105Z,1.27
2022-10-05T07:23:53.191Z,1.23
2022-10-05T07:26:35.152Z,0.90
2022-10-05T07:31:58.689Z,1.42
2022-10-05T07:34:49.995Z,1.80
2022-10-05T07:37:45.331Z,1.20
2022-10-05T07:40:21.280Z,1.23
2022-10-05T07:43:14.525Z,1.50
2022-10-05T07:45:47.001Z,1.33
2022-10-05T07:48:39.877Z,1.25
2022-10-05T07:51:18.516Z,0.88
2022-10-05T07:54:15.885Z,1.30
2022-10-05T07:56:45.946Z,0.88
2022-10-05T07:59:38.723Z,1.40
2022-10-05T08:02:44.583Z,1.23
2022-10-05T08:05:23.354Z,2.55
2022-10-05T08:07:57.453Z,1.27
2022-10-05T08:10:36.536Z,1.30
2022-10-05T08:13:12.132Z,1.50
2022-10-05T08:15:43.147Z,1.40
2022-10-05T08:18:16.567Z,1.48
2022-10-05T08:20:52.500Z,1.55
2022-10-05T08:23:41.072Z,1.50
2022-10-05T08:26:38.872Z,1.63
2022-10-05T08:29:29.951Z,1.40
2022-10-05T08:32:05.717Z,2.10
2022-10-05T08:34:59.379Z,1.08
2022-10-05T08:37:32.298Z,1.73
2022-10-05T08:40:36.688Z,1.50
2022-10-05T08:43:19.164Z,1.80
2022-10-05T08:46:24.010Z,2.53
2022-10-05T08:49:23.440Z,1.85
2022-10-05T08:52:25.760Z,1.23
2022-10-05T08:54:59.208Z,1.83
2022-10-05T08:57:39.262Z,2.30
2022-10-05T09:00:34.019Z,2.05
2022-10-05T09:03:16.582Z,1.73
2022-10-05T09:08:48.166Z,1.50
2022-10-05T09:11:39.516Z,2.17
2022-10-05T09:14:18.817Z,1.35
2022-10-05T09:17:13.716Z,1.75
2022-10-05T09:19:40.956Z,1.85
2022-10-05T09:22:15.865Z,1.88
2022-10-05T09:25:21.121Z,2.13
2022-10-05T09:28:31.422Z,1.77
2022-10-05T09:31:07.569Z,2.60
2022-10-05T09:33:45.786Z,2.13
2022-10-05T09:36:34.339Z,2.22
2022-10-05T09:39:28.059Z,1.30
2022-10-05T09:42:07.479Z,1.73
2022-10-05T09:44:57.597Z,1.77
2022-10-05T09:47:52.347Z,1.83
2022-10-05T09:50:41.434Z,2.03
2022-10-05T09:53:11.803Z,2.33
2022-10-05T09:55:42.059Z,1.58
2022-10-05T09:58:35.220Z,1.98
2022-10-05T10:01:34.306Z,1.52
2022-10-05T10:04:08.091Z,1.63
2022-10-05T10:07:03.778Z,1.70
2022-10-05T10:09:35.201Z,2.45
2022-10-05T10:12:10.281Z,1.70
2022-10-05T10:15:09.489Z,1.50
2022-10-05T10:17:55.663Z,1.98
2022-10-05T10:20:36.801Z,1.70
2022-10-05T10:23:13.228Z,1.77
2022-10-05T10:26:11.942Z,2.17
2022-10-05T10:29:32.136Z,2.22
2022-10-05T10:32:07.917Z,2.67
2022-10-05T10:34:56.344Z,1.60
2022-10-05T10:37:58.730Z,2.17
2022-10-05T10:40:37.232Z,2.25
2022-10-05T10:43:19.443Z,2.03
2022-10-05T10:46:00.204Z,2.30
2022-10-05T10:48:30.869Z,2.35
2022-10-05T10:51:07.425Z,1.60
2022-10-05T10:53:46.678Z,1.70
2022-10-05T10:56:41.650Z,2.00
2022-10-05T10:59:26.658Z,2.25
2022-10-05T11:02:20.736Z,1.45
2022-10-05T11:05:22.996Z,2.35
2022-10-05T11:08:30.088Z,1.60
2022-10-05T11:11:31.270Z,1.85
2022-10-05T11:14:21.309Z,2.10
2022-10-05T11:16:52.331Z,1.88
2022-10-05T11:20:18.528Z,2.13
2022-10-05T11:23:18.406Z,2.90
2022-10-05T11:25:48.548Z,1.77
2022-10-05T11:28:29.380Z,2.58
2022-10-05T11:30:59.987Z,1.95
2022-10-05T11:33:43.098Z,1.70
2022-10-05T11:36:40.827Z,1.98
2022-10-05T11:39:33.465Z,1.67
2022-10-05T11:42:33.349Z,2.20
2022-10-05T11:45:22.293Z,2.60
2022-10-05T11:48:30.632Z,1.85
2022-10-05T11:51:34.370Z,2.13
2022-10-05T11:54:46.593Z,1.85
2022-10-05T11:57:37.904Z,2.05
2022-10-05T12:00:17.008Z,1.70
2022-10-05T12:02:56.156Z,2.22
2022-10-05T12:05:36.615Z,1.40
2022-10-05T12:08:15.680Z,2.08
2022-10-05T12:11:03.860Z,1.83
2022-10-05T12:14:04.984Z,1.70
2022-10-05T12:16:43.684Z,2.15
2022-10-05T12:19:23.999Z,1.70
2022-10-05T12:22:04.200Z,1.77
2022-10-05T12:24:37.542Z,1.33
2022-10-05T12:27:11.427Z,1.17
2022-10-05T12:30:11.184Z,1.73
2022-10-05T12:32:44.560Z,1.27
2022-10-05T12:35:55.737Z,1.42
2022-10-05T12:38:38.296Z,1.90
2022-10-05T12:45:21.023Z,1.77
2022-10-05T12:48:10.543Z,2.15
2022-10-05T12:50:51.446Z,1.38
2022-10-05T12:53:19.846Z,1.88
2022-10-05T12:55:59.937Z,1.70
2022-10-05T12:58:27.305Z,2.03
2022-10-05T13:01:32.242Z,1.45
2022-10-05T13:04:18.063Z,1.70
2022-10-05T13:06:51.881Z,1.40
2022-10-05T13:09:54.489Z,1.48
2022-10-05T13:12:45.499Z,1.80
2022-10-05T13:16:05.033Z,2.33
2022-10-05T13:18:54.466Z,2.60
2022-10-05T13:21:27.823Z,2.28
2022-10-05T13:24:02.855Z,2.83
2022-10-05T13:26:40.778Z,3.75
2022-10-05T13:29:17.574Z,2.78
2022-10-05T13:31:46.649Z,2.55
2022-10-05T13:34:48.809Z,3.25
2022-10-05T13:37:28.278Z,2.53
2022-10-05T13:40:20.218Z,2.15
2022-10-05T13:42:58.080Z,3.03
2022-10-05T13:45:29.957Z,3.17
2022-10-05T13:48:39.706Z,2.42
2022-10-05T13:51:14.344Z,3.35
2022-10-05T13:53:50.167Z,3.72
2022-10-05T13:56:29.334Z,3.20
2022-10-05T13:59:15.164Z,1.73
2022-10-05T14:01:50.459Z,0.60
2022-10-05T14:04:48.358Z,1.00
2022-10-05T14:07:23.008Z,0.85
2022-10-05T14:09:50.376Z,0.80
2022-10-05T14:12:23.243Z,0.85
2022-10-05T14:14:52.951Z,1.00
2022-10-05T14:17:38.061Z,0.95
2022-10-05T14:20:26.965Z,0.80
2022-10-05T14:23:16.239Z,1.00
2022-10-05T14:25:54.118Z,0.47
2022-10-05T14:28:30.011Z,0.90
2022-10-05T14:31:01.912Z,0.63
2022-10-05T14:33:35.018Z,0.55
2022-10-05T14:36:02.676Z,0.60
2022-10-05T14:38:32.593Z,0.90
2022-10-05T14:41:17.632Z,0.60
2022-10-05T14:44:02.006Z,0.30
2022-10-05T14:46:34.065Z,0.57
2022-10-05T14:49:22.870Z,0.68
2022-10-05T14:51:51.874Z,0.90
2022-10-05T14:54:33.948Z,0.60
2022-10-05T14:57:52.922Z,0.70
2022-10-05T15:00:20.468Z,0.60
2022-10-05T15:03:17.605Z,0.70
2022-10-05T15:05:51.108Z,0.65
2022-10-05T15:08:37.021Z,0.50
2022-10-05T15:11:09.121Z,0.70
2022-10-05T15:13:44.006Z,0.77
2022-10-05T15:16:21.223Z,0.55
2022-10-05T15:19:16.155Z,0.77
2022-10-05T15:21:50.439Z,0.50
2022-10-05T15:24:25.910Z,0.60
2022-10-05T15:26:59.346Z,0.47
2022-10-05T15:30:06.380Z,0.50
2022-10-05T15:32:55.749Z,0.60
2022-10-05T15:35:37.201Z,0.40
2022-10-05T15:38:25.708Z,0.50
2022-10-05T15:41:08.245Z,0.40
2022-10-05T15:43:53.343Z,0.40
2022-10-05T15:47:17.956Z,0.60
2022-10-05T15:50:11.221Z,0.45
2022-10-05T15:52:46.595Z,0.60
2022-10-05T15:55:35.399Z,0.73
2022-10-05T15:58:53.172Z,0.40
2022-10-05T16:01:31.832Z,0.40
2022-10-05T16:04:13.055Z,0.50
2022-10-05T16:07:07.008Z,0.43
2022-10-05T16:10:06.261Z,0.70
2022-10-05T16:13:00.383Z,0.80
2022-10-05T16:15:48.835Z,1.05
2022-10-05T16:18:39.316Z,0.60
2022-10-05T16:21:17.905Z,0.60
2022-10-05T16:23:58.085Z,0.60
2022-10-05T16:26:34.161Z,0.80
2022-10-05T16:29:17.809Z,1.10
2022-10-05T16:31:57.440Z,0.98
2022-10-05T16:34:45.110Z,1.08
2022-10-05T16:37:15.373Z,0.60
2022-10-05T16:40:03.268Z,0.70
2022-10-05T16:42:37.388Z,0.90
2022-10-05T16:45:45.080Z,0.82
2022-10-05T16:48:30.756Z,1.13
2022-10-05T16:51:28.464Z,1.05
2022-10-05T16:54:21.125Z,0.73
2022-10-05T16:59:56.002Z,0.60
2022-10-05T17:02:41.273Z,0.95
2022-10-05T17:05:30.041Z,0.60
2022-10-05T17:08:18.499Z,0.70
2022-10-05T17:10:54.511Z,0.40
2022-10-05T17:13:41.184Z,0.85
2022-10-05T17:16:35.602Z,1.05
2022-10-05T17:19:36.501Z,0.80
2022-10-05T17:22:27.012Z,1.10
2022-10-05T17:24:54.087Z,0.80
2022-10-05T17:27:24.413Z,0.68
2022-10-05T17:30:15.411Z,0.77
2022-10-05T17:32:58.141Z,1.17
2022-10-05T17:36:03.217Z,0.90
2022-10-05T17:38:37.696Z,1.58
2022-10-05T17:41:22.892Z,0.88
2022-10-05T17:44:21.087Z,1.10
2022-10-05T17:46:52.615Z,1.30
2022-10-05T17:49:46.404Z,1.08
2022-10-05T17:52:45.676Z,1.10
2022-10-05T17:55:27.955Z,1.05
2022-10-05T17:57:58.794Z,1.65
2022-10-05T18:00:40.908Z,1.90
2022-10-05T18:03:33.716Z,1.27
2022-10-05T18:08:47.539Z,1.27
2022-10-05T18:11:40.263Z,1.70
2022-10-05T18:17:00.162Z,1.30
2022-10-05T18:19:32.494Z,1.58
2022-10-05T18:24:56.228Z,1.92
2022-10-05T18:27:43.631Z,1.65
2022-10-05T18:30:25.420Z,1.10
2022-10-05T18:33:29.953Z,1.13
2022-10-05T18:36:06.158Z,1.40
2022-10-05T18:38:58.447Z,1.90
2022-10-05T18:42:03.030Z,1.98
2022-10-05T18:44:48.947Z,2.80
2022-10-05T18:47:20.875Z,3.55
2022-10-05T18:49:51.934Z,3.08
2022-10-05T18:52:45.647Z,2.28
2022-10-05T18:55:44.382Z,2.97
2022-10-05T18:58:20.828Z,1.50
2022-10-05T19:01:31.687Z,2.40
2022-10-05T19:04:33.451Z,2.20
2022-10-05T19:07:04.838Z,2.88
2022-10-05T19:09:53.922Z,1.67
2022-10-05T19:12:35.996Z,2.10
2022-10-05T19:15:50.078Z,2.30
2022-10-05T19:18:36.053Z,1.85
2022-10-05T19:21:05.918Z,2.15
2022-10-05T19:23:51.139Z,2.63
2022-10-05T19:26:28.916Z,1.83
2022-10-05T19:29:22.714Z,2.63
2022-10-05T19:32:04.413Z,2.08
2022-10-05T19:34:56.517Z,1.73
2022-10-05T19:37:31.157Z,1.98
2022-10-05T19:40:33.675Z,2.13
2022-10-05T19:43:09.713Z,2.90
2022-10-05T19:45:43.480Z,2.28
2022-10-05T19:48:26.961Z,2.70
2022-10-05T19:51:00.363Z,2.22
2022-10-05T19:53:38.024Z,3.00
2022-10-05T19:56:20.359Z,2.78
2022-10-05T19:58:49.969Z,2.38
2022-10-05T20:01:34.027Z,1.95
2022-10-05T20:04:01.431Z,2.47
2022-10-05T20:06:30.229Z,2.55
2022-10-05T20:09:04.731Z,2.03
2022-10-05T20:11:49.474Z,2.72
2022-10-05T20:14:19.881Z,2.47
2022-10-05T20:17:05.775Z,2.72
2022-10-05T20:19:51.383Z,2.20
2022-10-05T20:22:34.757Z,2.33
2022-10-05T20:25:07.427Z,2.60
2022-10-05T20:27:37.372Z,2.70
2022-10-05T20:30:05.999Z,2.20
2022-10-05T20:32:33.113Z,2.55
2022-10-05T20:35:00.247Z,2.72
2022-10-05T20:37:27.407Z,2.75
2022-10-05T20:39:54.661Z,2.20
2022-10-05T20:42:23.046Z,1.85
2022-10-05T20:44:55.790Z,2.15
2022-10-05T20:47:25.392Z,2.58
2022-10-05T20:49:55.087Z,2.38
2022-10-05T20:52:23.320Z,2.40
2022-10-05T20:54:53.935Z,3.00
2022-10-05T20:57:21.489Z,3.53
2022-10-05T20:59:48.588Z,2.35
2022-10-05T21:02:15.773Z,2.25
2022-10-05T21:04:47.529Z,2.65
2022-10-05T21:07:17.294Z,3.78
2022-10-05T21:09:46.584Z,2.75
2022-10-05T21:12:16.142Z,2.60
2022-10-05T21:14:43.437Z,2.70
2022-10-05T21:17:14.317Z,3.35
2022-10-05T21:19:41.789Z,3.78
2022-10-05T21:22:09.990Z,3.05
2022-10-05T21:24:38.965Z,3.38
2022-10-05T21:27:07.187Z,2.40
2022-10-05T21:29:35.436Z,1.90
2022-10-05T21:32:02.908Z,1.73
2022-10-05T21:34:30.508Z,3.05
2022-10-05T21:36:57.586Z,3.30
2022-10-05T21:39:25.483Z,1.63
2022-10-05T21:41:52.619Z,2.92
2022-10-05T21:44:19.713Z,2.40
2022-10-05T21:46:47.784Z,3.47
2022-10-05T21:49:17.568Z,3.92
2022-10-05T21:51:48.044Z,2.45
2022-10-05T21:54:20.071Z,2.70
2022-10-05T21:56:50.945Z,3.08
2022-10-05T21:59:21.515Z,3.47
2022-10-05T22:01:48.738Z,3.42
2022-10-05T22:04:17.171Z,2.72
2022-10-05T22:06:44.291Z,2.05
2022-10-05T22:09:12.671Z,2.72
2022-10-05T22:11:39.839Z,3.63
2022-10-05T22:14:06.948Z,3.10
2022-10-05T22:16:38.235Z,2.47
2022-10-05T22:19:07.570Z,3.38
2022-10-05T22:21:41.755Z,2.92
2022-10-05T22:24:11.631Z,3.60
2022-10-05T22:26:41.821Z,2.15
2022-10-05T22:29:09.730Z,4.18
2022-10-05T22:31:37.449Z,2.83
2022-10-05T22:34:04.629Z,3.22
2022-10-05T22:36:34.702Z,3.00
2022-10-05T22:39:02.070Z,2.42
2022-10-05T22:41:29.299Z,3.05
2022-10-05T22:43:56.380Z,3.72
2022-10-05T22:46:23.666Z,3.38
2022-10-05T22:48:50.901Z,3.20
2022-10-05T22:51:17.989Z,3.00
2022-10-05T22:53:45.253Z,2.20
2022-10-05T22:56:14.152Z,2.35
2022-10-05T22:58:42.616Z,2.25
2022-10-05T23:01:12.336Z,2.63
2022-10-05T23:03:39.895Z,3.75
2022-10-05T23:06:10.201Z,2.53
2022-10-05T23:08:38.990Z,3.10
2022-10-05T23:11:08.747Z,2.58
2022-10-05T23:13:36.449Z,2.88
2022-10-05T23:16:14.890Z,3.10
2022-10-05T23:18:42.982Z,2.35
2022-10-05T23:21:11.010Z,2.85
2022-10-05T23:23:40.556Z,3.20
2022-10-05T23:26:09.354Z,3.60
2022-10-05T23:28:38.388Z,2.80
2022-10-05T23:31:07.923Z,2.47
2022-10-05T23:33:35.684Z,2.28
2022-10-05T23:36:09.225Z,2.97
2022-10-05T23:38:36.709Z,2.13
2022-10-05T23:41:05.375Z,3.45
2022-10-05T23:43:33.413Z,2.10
2022-10-05T23:46:01.287Z,2.75
2022-10-05T23:48:29.009Z,3.53
2022-10-05T23:50:56.567Z,2.97
2022-10-05T23:53:24.107Z,2.85
2022-10-05T23:55:53.135Z,2.95
2022-10-05T23:58:21.726Z,3.83
